Time;durP1;ratioP1;P1;durP2;ratioP2;P2;SDS_P1;SDS_P2;PMS_P1;PMS_P2;Temp;Humidity;BMP_temperature;BMP_pressure;BME280_temperature;BME280_humidity;BME280_pressure;Samples;Min_cycle;Max_cycle;Signal;HPM_P1;HPM_P2
2022/05/27 00:00:14;;;;;;;5.20;4.87;;;18.80;1.00;;;;;;5031420;28;20176;-59
2022/05/27 00:02:39;;;;;;;4.93;4.53;;;18.80;1.00;;;;;;5029658;28;20443;-58
2022/05/27 00:05:05;;;;;;;4.30;3.93;;;18.80;1.00;;;;;;5029376;28;20429;-58
2022/05/27 00:07:31;;;;;;;4.43;4.13;;;18.80;1.00;;;;;;5030841;28;20291;-58
2022/05/27 00:09:56;;;;;;;4.77;4.57;;;18.80;1.00;;;;;;5030417;28;20464;-59
2022/05/27 00:12:22;;;;;;;5.30;4.90;;;18.80;1.00;;;;;;5029366;28;20507;-59
2022/05/27 00:14:47;;;;;;;4.90;4.70;;;18.90;1.00;;;;;;5028922;28;20183;-56
2022/05/27 00:17:14;;;;;;;4.50;4.30;;;18.90;1.00;;;;;;5029994;28;20190;-59
2022/05/27 00:19:40;;;;;;;4.97;4.67;;;19.00;1.00;;;;;;5029410;28;20193;-56
2022/05/27 00:22:08;;;;;;;5.13;4.73;;;19.00;1.00;;;;;;5027833;28;20459;-59
2022/05/27 00:24:36;;;;;;;4.93;4.63;;;18.90;1.00;;;;;;5027234;28;21044;-59
2022/05/27 00:27:02;;;;;;;5.60;5.10;;;18.90;1.00;;;;;;5030627;28;20583;-58
2022/05/27 00:29:27;;;;;;;4.80;4.60;;;18.90;1.00;;;;;;5028883;28;20560;-59
2022/05/27 00:31:53;;;;;;;4.70;4.40;;;19.00;1.00;;;;;;5028294;28;20434;-59
2022/05/27 00:34:18;;;;;;;4.80;4.50;;;19.00;1.00;;;;;;5031016;28;20187;-57
2022/05/27 00:36:44;;;;;;;6.10;5.63;;;18.90;1.00;;;;;;5030121;28;20552;-57
2022/05/27 00:39:09;;;;;;;5.40;5.10;;;18.90;1.00;;;;;;5028429;28;20187;-59
2022/05/27 00:41:35;;;;;;;5.00;4.80;;;19.10;1.00;;;;;;5028458;28;20179;-58
2022/05/27 00:44:01;;;;;;;5.40;5.00;;;18.90;1.00;;;;;;5028263;28;20717;-59
2022/05/27 00:46:30;;;;;;;5.07;4.67;;;19.00;1.00;;;;;;5015786;28;20589;-58
2022/05/27 00:49:12;;;;;;;5.50;5.10;;;19.00;1.00;;;;;;5029325;28;20213;-58
2022/05/27 00:51:51;;;;;;;4.63;4.30;;;19.00;1.00;;;;;;5028899;28;20429;-58
2022/05/27 00:54:20;;;;;;;5.13;4.83;;;19.10;1.00;;;;;;5029054;28;20919;-58
2022/05/27 00:56:52;;;;;;;4.77;4.50;;;19.10;1.00;;;;;;5027730;28;21185;-59
2022/05/27 00:59:43;;;;;;;4.50;4.30;;;19.10;1.00;;;;;;5029644;28;20417;-59
2022/05/27 01:02:08;;;;;;;5.50;5.10;;;19.10;1.00;;;;;;5026546;28;20429;-58
2022/05/27 01:04:35;;;;;;;4.57;4.37;;;19.00;1.00;;;;;;5029025;28;20865;-56
2022/05/27 01:07:00;;;;;;;4.90;4.60;;;19.10;1.00;;;;;;5027803;28;20194;-53
2022/05/27 01:09:29;;;;;;;4.80;4.50;;;19.00;1.00;;;;;;5030423;28;20476;-56
2022/05/27 01:12:15;;;;;;;4.53;4.33;;;19.10;1.00;;;;;;5027905;28;20183;-57
2022/05/27 01:14:53;;;;;;;5.10;4.80;;;19.10;1.00;;;;;;5030317;28;20417;-57
2022/05/27 01:17:29;;;;;;;5.07;4.77;;;19.10;1.00;;;;;;5029994;28;20421;-57
2022/05/27 01:20:19;;;;;;;5.67;5.27;;;19.00;1.00;;;;;;5027820;28;20448;-57
2022/05/27 01:22:48;;;;;;;5.20;4.80;;;19.10;1.00;;;;;;5026467;28;20770;-56
2022/05/27 01:25:48;;;;;;;5.60;5.20;;;19.10;1.00;;;;;;5029315;28;20422;-58
2022/05/27 01:28:47;;;;;;;4.97;4.67;;;19.00;1.00;;;;;;5019682;28;20572;-57
2022/05/27 01:31:20;;;;;;;5.17;4.67;;;19.00;1.00;;;;;;5024881;28;20472;-58
2022/05/27 01:33:58;;;;;;;5.20;4.80;;;19.00;1.00;;;;;;5029441;28;20426;-58
2022/05/27 01:36:33;;;;;;;5.27;4.97;;;19.10;1.00;;;;;;5028459;28;21012;-53
2022/05/27 01:39:28;;;;;;;5.00;4.60;;;19.20;1.00;;;;;;5029030;28;21239;-54
2022/05/27 01:42:04;;;;;;;5.50;5.10;;;19.20;1.00;;;;;;5021726;28;20425;-58
2022/05/27 01:44:43;;;;;;;5.80;5.40;;;19.10;1.00;;;;;;5029383;28;20496;-56
2022/05/27 01:47:16;;;;;;;5.10;4.80;;;19.10;1.00;;;;;;5029019;28;20433;-57
2022/05/27 01:49:49;;;;;;;5.87;5.37;;;19.10;1.00;;;;;;5028284;28;20944;-58
2022/05/27 01:52:30;;;;;;;5.20;4.90;;;19.10;1.00;;;;;;5028754;28;20900;-58
2022/05/27 01:55:09;;;;;;;5.50;5.20;;;19.10;1.00;;;;;;5021796;28;20511;-58
2022/05/27 01:57:49;;;;;;;5.40;5.10;;;19.10;1.00;;;;;;5027714;28;20472;-58
2022/05/27 02:00:26;;;;;;;5.13;4.77;;;19.20;1.00;;;;;;5028269;28;20430;-58
2022/05/27 02:03:10;;;;;;;5.70;5.40;;;19.10;1.00;;;;;;5027558;28;20460;-57
2022/05/27 02:05:54;;;;;;;5.33;5.03;;;19.20;1.00;;;;;;5028110;28;20440;-59
2022/05/27 02:08:24;;;;;;;5.23;4.93;;;19.10;1.00;;;;;;5029108;28;20416;-59
2022/05/27 02:11:13;;;;;;;5.73;5.33;;;19.10;1.00;;;;;;5028534;28;20474;-57
2022/05/27 02:13:47;;;;;;;5.40;5.10;;;19.10;1.00;;;;;;5019152;28;20420;-59
2022/05/27 02:16:18;;;;;;;5.67;4.93;;;19.10;1.00;;;;;;5026986;28;20446;-59
2022/05/27 02:18:52;;;;;;;5.30;5.00;;;19.00;1.00;;;;;;5028828;28;20444;-59
2022/05/27 02:21:17;;;;;;;5.43;4.97;;;19.10;1.00;;;;;;5028134;28;20443;-58
2022/05/27 02:23:52;;;;;;;4.90;4.60;;;19.10;1.00;;;;;;5028603;28;20433;-56
2022/05/27 02:26:23;;;;;;;5.00;4.70;;;19.10;1.00;;;;;;5028512;28;20190;-58
2022/05/27 02:28:55;;;;;;;4.63;4.33;;;19.20;1.00;;;;;;5027162;28;20520;-59
2022/05/27 02:31:25;;;;;;;4.30;4.10;;;19.20;1.00;;;;;;5028071;28;20436;-59
2022/05/27 02:36:56;;;;;;;5.60;5.20;;;19.10;1.00;;;;;;5022385;28;20794;-58
2022/05/27 02:39:22;;;;;;;5.53;5.20;;;19.10;1.00;;;;;;5021767;28;20433;-58
2022/05/27 02:41:57;;;;;;;5.60;5.10;;;19.10;1.00;;;;;;5031980;28;20479;-58
2022/05/27 02:44:41;;;;;;;5.90;5.27;;;19.20;1.00;;;;;;5032515;28;20196;-57
2022/05/27 02:47:26;;;;;;;5.93;5.50;;;19.20;1.00;;;;;;5022216;28;20429;-57
2022/05/27 02:50:18;;;;;;;5.40;5.00;;;19.20;1.00;;;;;;5029698;28;21168;-59
2022/05/27 02:53:08;;;;;;;4.73;4.50;;;19.10;1.00;;;;;;5031321;28;20441;-58
2022/05/27 02:55:40;;;;;;;5.70;5.30;;;19.10;1.00;;;;;;5031531;28;20992;-58
2022/05/27 02:58:05;;;;;;;6.47;5.97;;;19.10;1.00;;;;;;5032196;28;20990;-59
2022/05/27 03:00:34;;;;;;;5.07;4.73;;;19.10;1.00;;;;;;5020579;28;20437;-58
2022/05/27 03:03:00;;;;;;;5.03;4.63;;;19.10;1.00;;;;;;5030881;28;20244;-56
2022/05/27 03:05:45;;;;;;;5.17;4.83;;;19.10;1.00;;;;;;5031587;28;20476;-59
2022/05/27 03:08:45;;;;;;;6.17;5.37;;;19.10;1.00;;;;;;5032146;28;20448;-55
2022/05/27 03:11:24;;;;;;;5.00;4.70;;;19.00;1.00;;;;;;5028515;28;21050;-58
2022/05/27 03:14:19;;;;;;;4.87;4.60;;;19.00;1.00;;;;;;5031743;28;20467;-58
2022/05/27 03:17:11;;;;;;;5.80;5.50;;;19.00;1.00;;;;;;5028169;28;20490;-57
2022/05/27 03:20:00;;;;;;;5.60;5.20;;;19.00;1.00;;;;;;5030531;28;20499;-59
2022/05/27 03:22:54;;;;;;;5.67;5.17;;;19.00;1.00;;;;;;5020481;28;20409;-55
2022/05/27 03:25:44;;;;;;;5.20;4.90;;;19.10;1.00;;;;;;5027474;28;20461;-57
2022/05/27 03:28:49;;;;;;;5.20;4.90;;;19.10;1.00;;;;;;5031213;28;20429;-56
2022/05/27 03:31:31;;;;;;;5.20;4.80;;;19.00;1.00;;;;;;5031434;28;20599;-58
2022/05/27 03:34:06;;;;;;;5.40;5.10;;;19.00;1.00;;;;;;5020597;28;20425;-58
2022/05/27 03:36:57;;;;;;;5.63;5.20;;;19.00;1.00;;;;;;5016335;28;20525;-59
2022/05/27 03:39:34;;;;;;;5.10;4.70;;;18.90;1.00;;;;;;5031817;28;20449;-58
2022/05/27 03:42:03;;;;;;;6.20;5.80;;;19.00;1.00;;;;;;5030340;28;20436;-58
2022/05/27 03:44:30;;;;;;;5.50;5.10;;;18.90;1.00;;;;;;5032163;28;20429;-55
2022/05/27 03:46:58;;;;;;;5.47;5.07;;;18.90;1.00;;;;;;5032825;28;20445;-60
2022/05/27 03:49:24;;;;;;;5.80;5.27;;;18.80;1.00;;;;;;5030488;28;20472;-58
2022/05/27 03:52:03;;;;;;;6.40;5.90;;;18.80;1.00;;;;;;5030804;28;20561;-59
2022/05/27 03:54:29;;;;;;;7.50;5.80;;;18.80;1.00;;;;;;5029526;28;20939;-58
2022/05/27 03:56:55;;;;;;;7.87;5.10;;;18.80;1.00;;;;;;5022982;28;20956;-53
2022/05/27 03:59:22;;;;;;;5.30;4.80;;;18.90;1.00;;;;;;5031144;28;20511;-54
2022/05/27 04:01:52;;;;;;;5.47;5.07;;;18.80;1.00;;;;;;5029619;28;20189;-50
2022/05/27 04:04:23;;;;;;;5.40;5.00;;;18.80;1.00;;;;;;5030010;28;20487;-53
2022/05/27 04:06:49;;;;;;;5.33;4.93;;;18.80;1.00;;;;;;5029623;28;20467;-52
2022/05/27 04:09:16;;;;;;;5.07;4.77;;;18.80;1.00;;;;;;5030055;28;20443;-51
2022/05/27 04:11:42;;;;;;;5.20;4.80;;;18.80;1.00;;;;;;5031515;28;20175;-56
2022/05/27 04:14:08;;;;;;;4.83;4.53;;;18.70;1.00;;;;;;5030701;28;20510;-53
2022/05/27 04:16:34;;;;;;;4.67;4.27;;;18.80;1.00;;;;;;5027544;28;20440;-55
2022/05/27 04:18:59;;;;;;;4.43;4.03;;;18.80;1.00;;;;;;5030696;28;20183;-54
2022/05/27 04:21:25;;;;;;;4.47;4.07;;;18.70;1.00;;;;;;5030605;28;20179;-51
2022/05/27 04:23:51;;;;;;;5.40;4.90;;;18.70;1.00;;;;;;5030395;28;20201;-54
2022/05/27 04:26:17;;;;;;;5.47;5.07;;;18.70;1.00;;;;;;5026262;28;21293;-53
2022/05/27 04:28:43;;;;;;;4.77;4.47;;;18.70;1.00;;;;;;5029738;28;20449;-49
2022/05/27 04:31:08;;;;;;;4.37;4.07;;;18.60;1.00;;;;;;5024244;28;20801;-51
2022/05/27 04:33:34;;;;;;;5.13;4.73;;;18.60;1.00;;;;;;5033530;28;20195;-49
2022/05/27 04:36:00;;;;;;;4.70;4.50;;;18.60;1.00;;;;;;5035085;28;20280;-53
2022/05/27 04:38:27;;;;;;;4.87;4.47;;;18.70;1.00;;;;;;5029296;28;20189;-55
2022/05/27 04:40:53;;;;;;;5.00;4.57;;;18.70;1.00;;;;;;5038701;28;20452;-51
2022/05/27 04:43:19;;;;;;;5.03;4.63;;;18.70;1.00;;;;;;5027385;28;20446;-54
2022/05/27 04:45:45;;;;;;;4.47;4.10;;;18.70;1.00;;;;;;5030904;28;20488;-54
2022/05/27 04:48:10;;;;;;;6.10;4.23;;;18.70;1.00;;;;;;5027904;28;20214;-51
2022/05/27 04:50:36;;;;;;;4.10;3.80;;;18.70;1.00;;;;;;5030889;28;21010;-54
2022/05/27 04:53:03;;;;;;;4.60;4.30;;;18.70;1.00;;;;;;5029157;28;20452;-52
2022/05/27 04:55:31;;;;;;;6.03;5.60;;;18.60;99.90;;;;;;5030933;28;20421;-50
2022/05/27 04:57:59;;;;;;;5.23;4.87;;;18.50;99.90;;;;;;5029921;28;20952;-52
2022/05/27 05:00:28;;;;;;;4.97;4.60;;;18.40;1.00;;;;;;5028661;28;20456;-52
2022/05/27 05:02:54;;;;;;;4.97;4.50;;;18.20;1.00;;;;;;5027937;28;20436;-53
2022/05/27 05:05:24;;;;;;;7.10;4.97;;;18.10;99.90;;;;;;5023579;28;20499;-54
2022/05/27 05:07:55;;;;;;;5.00;4.70;;;18.00;99.90;;;;;;5021080;28;20844;-53
2022/05/27 05:10:22;;;;;;;4.80;4.50;;;17.80;99.90;;;;;;5023790;28;22934;-52
2022/05/27 05:12:49;;;;;;;5.07;4.73;;;17.80;99.90;;;;;;5026374;28;20656;-52
2022/05/27 05:15:16;;;;;;;4.90;4.50;;;17.70;99.90;;;;;;5029069;28;20432;-50
2022/05/27 05:17:42;;;;;;;4.70;4.40;;;17.60;1.00;;;;;;5030348;28;20452;-51
2022/05/27 05:20:10;;;;;;;4.73;4.40;;;17.60;1.00;;;;;;5028601;28;20431;-51
2022/05/27 05:22:36;;;;;;;5.70;4.50;;;17.50;99.90;;;;;;5029444;28;20838;-52
2022/05/27 05:25:01;;;;;;;4.90;4.50;;;17.50;1.00;;;;;;5026521;28;20447;-54
2022/05/27 05:27:28;;;;;;;4.93;4.53;;;17.40;5.80;;;;;;5022642;28;20843;-53
2022/05/27 05:29:55;;;;;;;4.70;4.30;;;17.30;99.90;;;;;;5029006;28;20212;-54
2022/05/27 05:32:22;;;;;;;5.30;4.90;;;17.20;30.60;;;;;;5031429;28;20464;-53
2022/05/27 05:34:48;;;;;;;4.93;4.60;;;17.10;99.90;;;;;;5022627;28;20469;-55
2022/05/27 05:37:14;;;;;;;5.10;4.60;;;17.10;99.90;;;;;;5026254;28;20443;-54
2022/05/27 05:39:40;;;;;;;4.67;4.37;;;17.10;99.90;;;;;;5028971;28;20477;-53
2022/05/27 05:42:07;;;;;;;4.83;4.43;;;17.10;99.90;;;;;;5019835;28;21317;-52
2022/05/27 05:44:33;;;;;;;5.77;4.33;;;17.20;99.90;;;;;;5033131;28;20186;-48
2022/05/27 05:47:00;;;;;;;5.40;4.20;;;17.10;99.90;;;;;;5025920;28;20445;-49
2022/05/27 05:49:26;;;;;;;5.90;4.90;;;17.20;99.90;;;;;;5022885;28;20471;-55
2022/05/27 05:51:54;;;;;;;5.00;4.60;;;17.10;99.90;;;;;;5029412;28;20779;-54
2022/05/27 05:54:21;;;;;;;4.40;4.10;;;17.00;1.00;;;;;;5029828;28;20466;-56
2022/05/27 05:56:47;;;;;;;5.17;4.20;;;16.90;1.00;;;;;;5036776;28;20951;-56
2022/05/27 05:59:14;;;;;;;4.67;4.30;;;16.90;1.00;;;;;;5015531;28;20899;-50
2022/05/27 06:01:41;;;;;;;4.70;4.30;;;16.80;1.00;;;;;;5028052;28;20438;-52
2022/05/27 06:04:06;;;;;;;5.50;4.17;;;16.90;1.00;;;;;;5021571;28;20554;-53
2022/05/27 06:06:32;;;;;;;4.40;4.10;;;16.80;1.00;;;;;;5026211;28;20427;-53
2022/05/27 06:08:57;;;;;;;5.40;4.90;;;16.80;1.00;;;;;;5034171;28;20187;-54
2022/05/27 06:11:23;;;;;;;5.10;4.77;;;16.80;1.00;;;;;;5027093;28;20218;-56
2022/05/27 06:13:48;;;;;;;5.00;4.60;;;16.70;1.00;;;;;;5024913;28;20502;-55
2022/05/27 06:16:14;;;;;;;6.03;5.43;;;16.70;1.00;;;;;;5028397;28;20191;-55
2022/05/27 06:18:40;;;;;;;6.23;4.73;;;16.60;1.00;;;;;;5024648;28;20207;-52
2022/05/27 06:21:05;;;;;;;4.83;4.43;;;16.60;1.00;;;;;;5026172;28;20263;-56
2022/05/27 06:23:31;;;;;;;5.20;4.70;;;16.60;1.00;;;;;;5028879;28;20184;-54
2022/05/27 06:25:59;;;;;;;5.07;4.10;;;16.60;1.00;;;;;;5028095;28;20544;-56
2022/05/27 06:36:42;;;;;;;4.63;4.23;;;16.60;1.00;;;;;;5027964;28;20453;-54
2022/05/27 06:39:07;;;;;;;8.03;4.23;;;16.50;1.00;;;;;;5025627;28;20447;-54
2022/05/27 06:41:34;;;;;;;4.80;4.40;;;16.50;1.00;;;;;;5025150;28;20790;-54
2022/05/27 06:43:59;;;;;;;4.80;4.40;;;16.60;1.00;;;;;;5023836;28;20187;-53
2022/05/27 06:46:25;;;;;;;5.33;3.87;;;16.60;1.00;;;;;;5023591;28;21085;-53
2022/05/27 06:48:51;;;;;;;4.90;4.50;;;16.60;1.00;;;;;;5024041;28;20213;-53
2022/05/27 06:51:18;;;;;;;4.90;4.50;;;16.70;1.00;;;;;;5027746;28;20873;-56
2022/05/27 06:53:44;;;;;;;5.47;4.83;;;16.70;1.00;;;;;;5025874;28;20207;-56
2022/05/27 06:56:10;;;;;;;4.40;4.00;;;16.70;1.00;;;;;;5027366;28;20509;-56
2022/05/27 06:58:37;;;;;;;4.70;4.20;;;16.70;1.00;;;;;;5039225;28;20445;-55
2022/05/27 07:01:04;;;;;;;5.47;4.30;;;16.60;1.00;;;;;;5025539;28;21298;-54
2022/05/27 07:03:29;;;;;;;4.43;4.03;;;16.70;1.00;;;;;;5017954;28;20504;-55
2022/05/27 07:05:55;;;;;;;4.17;3.70;;;16.70;1.00;;;;;;5017680;28;20460;-55
2022/05/27 07:08:20;;;;;;;4.50;4.10;;;16.90;1.00;;;;;;5016100;28;20192;-52
2022/05/27 07:10:46;;;;;;;4.87;4.30;;;16.90;1.00;;;;;;5014714;28;20215;-56
2022/05/27 07:13:12;;;;;;;3.93;3.63;;;16.80;1.00;;;;;;5019450;28;20182;-52
2022/05/27 07:15:38;;;;;;;4.27;3.97;;;16.80;1.00;;;;;;5018305;28;20628;-57
2022/05/27 07:18:06;;;;;;;7.27;4.17;;;16.70;1.00;;;;;;5019192;28;20442;-56
2022/05/27 07:20:32;;;;;;;6.07;4.33;;;16.70;1.00;;;;;;5020497;28;20192;-57
2022/05/27 07:22:58;;;;;;;4.30;3.90;;;16.60;1.00;;;;;;5019156;28;20423;-55
2022/05/27 07:25:24;;;;;;;4.27;3.87;;;16.60;1.00;;;;;;5021460;28;20449;-55
2022/05/27 07:27:49;;;;;;;4.53;4.13;;;16.50;1.00;;;;;;5020954;28;20211;-55
2022/05/27 07:30:15;;;;;;;4.63;4.00;;;16.30;1.00;;;;;;5022761;28;20246;-55
2022/05/27 07:32:41;;;;;;;4.20;3.90;;;16.20;1.00;;;;;;5020334;28;20189;-53
2022/05/27 07:35:08;;;;;;;7.23;4.70;;;16.20;3.90;;;;;;5024028;28;20426;-56
2022/05/27 07:37:34;;;;;;;5.97;4.10;;;16.20;8.30;;;;;;5027267;28;20484;-56
2022/05/27 07:40:00;;;;;;;3.03;2.60;;;16.10;19.90;;;;;;5029316;28;20574;-54
2022/05/27 07:42:25;;;;;;;3.50;2.70;;;15.90;1.00;;;;;;5026468;28;20187;-50
2022/05/27 07:44:51;;;;;;;2.90;2.70;;;15.40;1.00;;;;;;5021419;28;20203;-56
2022/05/27 07:47:17;;;;;;;3.07;2.87;;;14.70;17.20;;;;;;5022982;28;20191;-57
2022/05/27 07:49:43;;;;;;;2.60;2.40;;;14.30;31.60;;;;;;5031946;28;20214;-57
2022/05/27 07:52:09;;;;;;;2.93;2.63;;;13.90;57.10;;;;;;5023027;28;20446;-58
2022/05/27 07:54:35;;;;;;;3.37;2.97;;;13.70;87.40;;;;;;5028627;28;20257;-58
2022/05/27 07:57:01;;;;;;;2.80;2.60;;;13.50;98.00;;;;;;5014992;28;20877;-57
2022/05/27 07:59:27;;;;;;;3.30;2.43;;;13.30;99.90;;;;;;5022219;28;20240;-58
2022/05/27 08:01:53;;;;;;;3.03;2.73;;;13.30;99.90;;;;;;5026461;28;20460;-53
2022/05/27 08:04:18;;;;;;;3.10;2.90;;;13.20;99.90;;;;;;5033282;28;20428;-59
2022/05/27 08:06:45;;;;;;;3.17;2.70;;;13.20;99.90;;;;;;5037901;28;20202;-57
2022/05/27 08:09:13;;;;;;;3.00;2.70;;;13.10;99.90;;;;;;5041003;28;20285;-56
2022/05/27 08:11:39;;;;;;;4.13;2.77;;;13.10;99.90;;;;;;5035891;28;20433;-53
2022/05/27 08:14:05;;;;;;;3.07;2.70;;;13.10;99.90;;;;;;5034967;28;20441;-59
2022/05/27 08:16:33;;;;;;;3.20;2.90;;;13.20;99.90;;;;;;5036628;28;20449;-55
2022/05/27 08:18:59;;;;;;;4.53;3.20;;;13.20;99.90;;;;;;5038259;28;20480;-57
2022/05/27 08:21:25;;;;;;;3.10;2.80;;;13.30;99.90;;;;;;5043223;28;20457;-53
2022/05/27 08:23:52;;;;;;;3.53;3.23;;;13.30;99.90;;;;;;5031703;28;20414;-56
2022/05/27 08:26:18;;;;;;;3.20;2.90;;;13.30;99.90;;;;;;5030684;28;20167;-57
2022/05/27 08:28:44;;;;;;;3.03;2.83;;;13.30;99.90;;;;;;5029845;28;20480;-55
2022/05/27 08:31:09;;;;;;;4.70;2.60;;;13.30;99.90;;;;;;5030858;28;20218;-52
2022/05/27 08:39:09;;;;;;;3.37;3.07;;;13.50;99.90;;;;;;5029337;28;20457;-54
2022/05/27 08:41:40;;;;;;;4.40;2.70;;;13.50;99.90;;;;;;5030106;28;20449;-56
2022/05/27 08:44:17;;;;;;;3.30;2.40;;;13.50;99.90;;;;;;5032687;28;20436;-51
2022/05/27 08:47:17;;;;;;;3.10;2.80;;;13.50;99.90;;;;;;5032880;28;20500;-54
2022/05/27 08:49:48;;;;;;;2.90;2.60;;;13.50;99.90;;;;;;5017961;28;20461;-51
2022/05/27 08:53:01;;;;;;;3.10;2.70;;;13.40;99.90;;;;;;5030807;28;20443;-52
2022/05/27 09:01:29;;;;;;;3.70;2.20;;;13.40;99.90;;;;;;4985611;28;20515;-55
2022/05/27 09:04:05;;;;;;;2.90;2.67;;;13.50;99.90;;;;;;4986616;28;20907;-55
2022/05/27 09:06:47;;;;;;;2.50;2.30;;;13.60;99.90;;;;;;4988762;28;20441;-54
2022/05/27 09:09:21;;;;;;;2.37;2.17;;;13.70;99.90;;;;;;4985507;28;20490;-55
2022/05/27 09:12:07;;;;;;;2.63;2.23;;;13.90;99.90;;;;;;4988701;28;20589;-52
2022/05/27 09:14:36;;;;;;;2.73;2.20;;;14.10;99.90;;;;;;4985591;28;20941;-54
2022/05/27 09:17:09;;;;;;;3.33;2.67;;;14.20;99.90;;;;;;4985778;28;20436;-51
2022/05/27 09:19:52;;;;;;;2.80;2.30;;;14.20;99.90;;;;;;4978254;28;20447;-51
2022/05/27 09:22:38;;;;;;;2.60;2.40;;;14.30;99.90;;;;;;4979821;28;20443;-56
2022/05/27 09:25:24;;;;;;;3.13;2.67;;;14.30;87.80;;;;;;4981417;28;20546;-53
2022/05/27 09:28:31;;;;;;;3.07;2.87;;;14.20;67.90;;;;;;5020695;28;20457;-51
2022/05/27 09:30:58;;;;;;;3.70;2.93;;;14.10;81.80;;;;;;5013775;28;20488;-52
2022/05/27 09:33:26;;;;;;;3.97;2.83;;;14.10;91.30;;;;;;5023170;28;20414;-52
2022/05/27 09:36:09;;;;;;;3.07;2.77;;;14.10;99.90;;;;;;5022528;28;20418;-54
2022/05/27 09:38:41;;;;;;;2.50;2.30;;;14.10;63.20;;;;;;5023855;28;20428;-48
2022/05/27 09:41:25;;;;;;;4.20;3.00;;;14.00;81.80;;;;;;5030733;28;20464;-52
2022/05/27 09:44:04;;;;;;;2.90;2.70;;;14.00;93.60;;;;;;5029661;28;20487;-49
2022/05/27 09:46:32;;;;;;;5.27;3.00;;;14.10;99.90;;;;;;5029022;28;21129;-54
2022/05/27 09:48:58;;;;;;;3.40;3.10;;;14.20;99.90;;;;;;5035577;28;20433;-51
2022/05/27 09:51:25;;;;;;;3.97;2.60;;;14.20;98.70;;;;;;5031314;28;20493;-51
2022/05/27 09:54:19;;;;;;;3.07;2.70;;;14.20;99.90;;;;;;5031488;28;20422;-52
2022/05/27 09:57:04;;;;;;;3.23;2.90;;;14.10;99.90;;;;;;5027933;28;20552;-50
2022/05/27 09:59:35;;;;;;;4.50;3.27;;;14.00;99.90;;;;;;5030458;28;20464;-51
2022/05/27 10:02:15;;;;;;;4.43;3.80;;;14.00;99.90;;;;;;5028658;28;20418;-51
2022/05/27 10:04:52;;;;;;;4.93;3.43;;;14.00;99.90;;;;;;5029951;28;20461;-52
2022/05/27 10:07:26;;;;;;;4.03;3.50;;;14.10;99.90;;;;;;5028765;28;20425;-49
2022/05/27 10:09:52;;;;;;;4.43;3.93;;;14.10;99.90;;;;;;5031022;28;20859;-51
2022/05/27 10:12:32;;;;;;;3.97;3.57;;;14.10;99.90;;;;;;5022965;28;20461;-52
2022/05/27 10:14:58;;;;;;;4.10;3.70;;;14.10;99.90;;;;;;5029869;28;20429;-53
2022/05/27 10:17:36;;;;;;;4.07;3.60;;;14.30;99.90;;;;;;5027144;28;20468;-50
2022/05/27 10:20:29;;;;;;;6.17;4.17;;;14.40;99.90;;;;;;5024874;28;20426;-51
2022/05/27 10:23:05;;;;;;;4.30;3.90;;;14.30;99.90;;;;;;5030890;28;20418;-50
2022/05/27 10:25:37;;;;;;;4.27;3.43;;;14.30;99.90;;;;;;5030901;28;20428;-48
2022/05/27 10:28:05;;;;;;;6.47;3.63;;;14.30;99.90;;;;;;5026365;28;20950;-54
2022/05/27 10:30:53;;;;;;;6.73;4.07;;;14.50;99.90;;;;;;5029326;28;20540;-51
2022/05/27 10:33:22;;;;;;;5.80;3.70;;;14.60;96.90;;;;;;5027857;28;20967;-49
2022/05/27 10:35:50;;;;;;;3.87;3.47;;;14.70;99.90;;;;;;5028442;28;20409;-50
2022/05/27 10:39:00;;;;;;;4.10;3.70;;;14.90;97.20;;;;;;5023385;28;20427;-53
2022/05/27 10:42:00;;;;;;;8.70;4.20;;;15.00;96.70;;;;;;5024351;28;20730;-51
2022/05/27 10:44:50;;;;;;;4.17;3.87;;;14.80;77.50;;;;;;5026698;28;20428;-52
2022/05/27 10:47:30;;;;;;;4.60;4.20;;;14.70;75.10;;;;;;5026674;28;20437;-51
2022/05/27 10:50:13;;;;;;;5.00;4.03;;;14.60;71.50;;;;;;5027133;28;20467;-51
2022/05/27 10:52:44;;;;;;;5.17;3.90;;;14.50;63.50;;;;;;5028793;28;20409;-50
2022/05/27 10:55:40;;;;;;;5.57;3.80;;;14.50;59.40;;;;;;5025554;28;20430;-51
2022/05/27 11:04:40;;;;;;;5.07;4.17;;;14.40;99.90;;;;;;5031409;28;20441;-49
2022/05/27 11:07:29;;;;;;;5.17;4.70;;;14.50;99.90;;;;;;5030088;28;20460;-52
2022/05/27 11:10:21;;;;;;;6.50;5.10;;;14.70;99.10;;;;;;5022234;28;20469;-51
2022/05/27 11:16:11;;;;;;;4.63;4.23;;;14.80;99.90;;;;;;5032915;28;20413;-51
2022/05/27 11:19:01;;;;;;;4.73;4.07;;;14.90;99.90;;;;;;5030818;28;21314;-54
2022/05/27 11:21:36;;;;;;;4.70;4.40;;;14.80;90.90;;;;;;5032844;28;20950;-50
2022/05/27 11:24:29;;;;;;;4.10;3.70;;;14.60;78.30;;;;;;5021555;28;20429;-52
2022/05/27 11:27:09;;;;;;;4.73;4.00;;;14.60;84.50;;;;;;5013181;28;20480;-54
2022/05/27 11:29:59;;;;;;;4.00;3.70;;;14.60;72.10;;;;;;5020836;28;20791;-55
2022/05/27 11:32:56;;;;;;;4.20;3.80;;;14.40;72.10;;;;;;5012761;28;20441;-53
2022/05/27 11:35:46;;;;;;;4.10;3.80;;;14.40;67.60;;;;;;5023705;28;20801;-52
2022/05/27 11:38:45;;;;;;;4.40;3.97;;;14.30;56.20;;;;;;5032588;28;20424;-51
2022/05/27 11:41:14;;;;;;;3.40;3.10;;;14.20;76.20;;;;;;5030932;28;20429;-51
2022/05/27 11:44:04;;;;;;;4.03;3.67;;;14.20;48.00;;;;;;5031176;28;20440;-53
2022/05/27 11:46:41;;;;;;;4.10;3.80;;;14.30;59.50;;;;;;5022078;28;20441;-53
2022/05/27 11:49:15;;;;;;;3.33;3.03;;;14.60;64.60;;;;;;5032181;28;20452;-55
2022/05/27 11:51:49;;;;;;;3.20;2.90;;;14.80;52.90;;;;;;5031849;28;20929;-52
2022/05/27 11:54:42;;;;;;;3.43;3.13;;;15.20;15.10;;;;;;5031104;28;20483;-51
2022/05/27 11:57:31;;;;;;;3.17;2.93;;;15.60;20.60;;;;;;5021957;28;20987;-55
2022/05/27 12:00:03;;;;;;;3.20;3.00;;;16.40;15.20;;;;;;5031802;28;20434;-54
2022/05/27 12:02:42;;;;;;;5.13;3.00;;;16.60;1.00;;;;;;5031717;28;20431;-53
2022/05/27 12:05:19;;;;;;;3.37;3.17;;;16.70;1.00;;;;;;5029178;28;20450;-52
2022/05/27 12:08:03;;;;;;;3.53;3.33;;;16.80;1.00;;;;;;5031729;28;20427;-55
2022/05/27 12:10:45;;;;;;;6.17;3.97;;;16.90;1.00;;;;;;5030060;28;20466;-54
2022/05/27 12:13:36;;;;;;;3.97;3.67;;;16.60;1.00;;;;;;5030162;28;20446;-49
2022/05/27 12:16:26;;;;;;;4.60;4.30;;;16.30;1.00;;;;;;5031475;28;20429;-53
2022/05/27 12:18:59;;;;;;;4.33;3.93;;;16.20;1.00;;;;;;5018446;28;20411;-53
2022/05/27 12:21:31;;;;;;;4.40;4.00;;;16.10;1.00;;;;;;5030752;28;20483;-53
2022/05/27 12:24:01;;;;;;;4.73;4.23;;;16.00;1.00;;;;;;5031649;28;20850;-54
2022/05/27 12:26:36;;;;;;;3.93;3.53;;;16.10;1.00;;;;;;5029763;28;20465;-55
2022/05/27 12:29:06;;;;;;;4.40;3.90;;;16.30;1.00;;;;;;5030573;28;20434;-55
2022/05/27 12:31:33;;;;;;;3.80;3.50;;;16.70;1.00;;;;;;5030542;28;20787;-54
2022/05/27 12:34:27;;;;;;;4.30;3.90;;;17.00;1.00;;;;;;5031589;28;20425;-54
2022/05/27 12:37:22;;;;;;;4.63;4.10;;;16.80;1.00;;;;;;5027636;28;20761;-54
2022/05/27 12:39:49;;;;;;;4.10;3.80;;;16.70;1.00;;;;;;5029185;28;20851;-54
2022/05/27 12:42:24;;;;;;;4.60;4.20;;;16.80;1.00;;;;;;5030009;28;20432;-55
2022/05/27 12:44:51;;;;;;;4.73;4.33;;;16.80;1.00;;;;;;5035682;28;20429;-54
2022/05/27 12:47:33;;;;;;;5.03;4.60;;;16.90;1.00;;;;;;5037449;28;20420;-50
2022/05/27 12:50:02;;;;;;;4.60;4.23;;;17.10;1.00;;;;;;5030933;28;20462;-49
2022/05/27 12:52:30;;;;;;;4.07;3.77;;;17.20;1.00;;;;;;5029433;28;20461;-52
2022/05/27 12:54:59;;;;;;;4.77;4.40;;;17.30;99.90;;;;;;5031357;28;20438;-51
2022/05/27 13:03:33;;;;;;;4.47;4.17;;;17.40;99.90;;;;;;5030700;28;20579;-52
2022/05/27 13:06:26;;;;;;;4.00;3.70;;;18.30;1.00;;;;;;5027155;28;20955;-53
2022/05/27 13:08:52;;;;;;;4.23;3.93;;;18.80;1.00;;;;;;5030650;28;20421;-50
2022/05/27 13:11:24;;;;;;;4.27;3.97;;;19.20;1.00;;;;;;5029147;28;20846;-53
2022/05/27 13:13:52;;;;;;;4.30;4.00;;;18.90;1.00;;;;;;5030751;28;20186;-54
2022/05/27 13:16:48;;;;;;;4.90;4.60;;;18.60;99.90;;;;;;5028980;28;20428;-52
2022/05/27 13:19:22;;;;;;;4.43;4.13;;;18.10;99.90;;;;;;5030343;28;20418;-55
2022/05/27 13:22:03;;;;;;;5.23;4.83;;;18.30;1.00;;;;;;5025474;28;20429;-52
2022/05/27 13:24:39;;;;;;;5.03;4.50;;;18.10;99.90;;;;;;5026467;28;20413;-52
2022/05/27 13:27:32;;;;;;;4.90;4.50;;;18.10;1.00;;;;;;5024865;28;20505;-52
2022/05/27 13:30:22;;;;;;;4.53;4.23;;;18.10;1.00;;;;;;5016882;28;20465;-51
2022/05/27 13:33:07;;;;;;;4.50;4.10;;;18.10;99.90;;;;;;5027870;28;20490;-53
2022/05/27 13:35:42;;;;;;;4.37;4.07;;;18.60;99.90;;;;;;5028579;28;20457;-52
2022/05/27 13:38:10;;;;;;;4.60;4.30;;;19.00;1.00;;;;;;5029768;28;20413;-52
2022/05/27 13:40:37;;;;;;;4.60;4.27;;;19.30;1.00;;;;;;5028913;28;20523;-52
2022/05/27 13:43:11;;;;;;;4.03;3.73;;;19.20;99.90;;;;;;5029743;28;20521;-53
2022/05/27 13:45:49;;;;;;;4.90;4.50;;;19.50;99.90;;;;;;5024447;28;20426;-51
2022/05/27 13:48:33;;;;;;;4.27;3.97;;;20.20;99.90;;;;;;5030086;28;20421;-52
2022/05/27 13:51:08;;;;;;;4.90;4.60;;;21.10;99.90;;;;;;5027761;28;20469;-55
2022/05/27 13:53:35;;;;;;;4.97;4.43;;;21.60;1.00;;;;;;5028290;28;20441;-53
2022/05/27 13:56:13;;;;;;;5.30;5.00;;;21.00;1.00;;;;;;5029174;28;20458;-51
2022/05/27 13:59:19;;;;;;;4.50;4.20;;;20.90;1.00;;;;;;5029798;28;20422;-54
2022/05/27 14:01:50;;;;;;;5.77;5.37;;;20.90;1.00;;;;;;5016086;28;20486;-53
2022/05/27 14:04:22;;;;;;;5.10;4.80;;;21.40;1.00;;;;;;5028069;28;20433;-54